createdAt,value
2018-06-20T00:00:15.344Z,12.93
2018-06-20T00:02:43.908Z,12.87
2018-06-20T00:05:13.173Z,13.50
2018-06-20T00:07:41.686Z,13.77
2018-06-20T00:10:10.999Z,13.20
2018-06-20T00:12:39.601Z,13.07
2018-06-20T00:15:08.204Z,13.93
2018-06-20T00:17:36.717Z,12.80
2018-06-20T00:20:05.258Z,12.23
2018-06-20T00:22:33.790Z,11.40
2018-06-20T00:25:02.312Z,13.03
2018-06-20T00:27:30.809Z,12.87
2018-06-20T00:29:59.316Z,13.43
2018-06-20T00:32:27.848Z,14.47
2018-06-20T00:34:56.387Z,12.80
2018-06-20T00:37:25.708Z,14.20
2018-06-20T00:39:54.592Z,15.97
2018-06-20T00:42:23.128Z,15.17
2018-06-20T00:44:51.666Z,14.93
2018-06-20T00:47:20.162Z,15.37
2018-06-20T00:49:48.722Z,16.00
2018-06-20T00:52:17.212Z,16.33
2018-06-20T00:54:45.771Z,16.63
2018-06-20T00:57:14.961Z,16.17
2018-06-20T00:59:43.536Z,16.17
2018-06-20T01:02:12.053Z,15.83
2018-06-20T01:04:40.590Z,15.80
2018-06-20T01:07:09.136Z,16.50
2018-06-20T01:09:37.644Z,15.63
2018-06-20T01:12:06.362Z,15.97
2018-06-20T01:14:34.876Z,14.77
2018-06-20T01:17:03.504Z,16.40
2018-06-20T01:19:31.971Z,16.37
2018-06-20T01:22:00.620Z,14.90
2018-06-20T01:24:29.934Z,15.97
2018-06-20T01:26:58.438Z,16.57
2018-06-20T01:29:26.969Z,15.57
2018-06-20T01:31:55.744Z,15.20
2018-06-20T01:34:24.213Z,15.20
2018-06-20T01:36:52.751Z,16.60
2018-06-20T01:39:21.210Z,17.70
2018-06-20T01:41:49.988Z,17.73
2018-06-20T01:44:18.527Z,17.90
2018-06-20T01:46:47.029Z,19.00
2018-06-20T01:49:16.374Z,18.33
2018-06-20T01:51:44.885Z,18.43
2018-06-20T01:54:13.495Z,17.80
2018-06-20T01:56:41.986Z,19.23
2018-06-20T01:59:10.735Z,19.23
2018-06-20T02:01:39.634Z,20.60
2018-06-20T02:04:08.279Z,20.73
2018-06-20T02:06:36.760Z,20.17
2018-06-20T02:09:07.979Z,21.50
2018-06-20T02:11:36.484Z,20.57
2018-06-20T02:14:04.979Z,20.43
2018-06-20T02:16:36.439Z,20.60
2018-06-20T02:19:04.945Z,21.43
2018-06-20T02:21:33.444Z,21.40
2018-06-20T02:24:01.996Z,21.60
2018-06-20T02:26:30.503Z,21.87
2018-06-20T02:28:59.074Z,21.63
2018-06-20T02:31:28.314Z,21.50
2018-06-20T02:33:57.159Z,21.70
2018-06-20T02:36:31.025Z,22.30
2018-06-20T02:39:00.139Z,20.73
2018-06-20T02:41:28.648Z,21.47
2018-06-20T02:43:57.294Z,22.93
2018-06-20T02:46:25.792Z,22.70
2018-06-20T02:48:54.397Z,22.10
2018-06-20T02:51:22.907Z,22.60
2018-06-20T02:53:51.524Z,21.53
2018-06-20T02:56:21.167Z,21.43
2018-06-20T02:58:49.732Z,22.60
2018-06-20T03:01:18.214Z,23.23
2018-06-20T03:03:53.374Z,21.80
2018-06-20T03:06:21.910Z,22.07
2018-06-20T03:08:56.346Z,22.27
2018-06-20T03:11:25.291Z,23.20
2018-06-20T03:13:53.791Z,21.87
2018-06-20T03:16:22.332Z,22.53
2018-06-20T03:18:50.867Z,23.70
2018-06-20T03:21:19.406Z,22.20
2018-06-20T03:23:47.912Z,23.23
2018-06-20T03:26:16.645Z,22.93
2018-06-20T03:28:45.174Z,22.27
2018-06-20T03:31:13.699Z,23.17
2018-06-20T03:33:42.205Z,22.30
2018-06-20T03:36:10.712Z,22.60
2018-06-20T03:38:39.256Z,23.07
2018-06-20T03:41:07.764Z,25.20
2018-06-20T03:43:36.348Z,23.33
2018-06-20T03:46:04.855Z,25.97
2018-06-20T03:48:33.421Z,24.90
2018-06-20T03:51:02.150Z,24.40
2018-06-20T03:53:30.792Z,23.40
2018-06-20T03:55:59.368Z,24.97
2018-06-20T03:58:27.848Z,25.07
2018-06-20T04:00:56.356Z,24.47
2018-06-20T04:03:24.933Z,25.17
2018-06-20T04:05:53.534Z,23.60
2018-06-20T04:08:22.748Z,23.87
2018-06-20T04:10:51.369Z,24.00
2018-06-20T04:13:19.915Z,24.30
2018-06-20T04:15:48.419Z,24.37
2018-06-20T04:18:17.271Z,24.83
2018-06-20T04:20:45.720Z,24.77
2018-06-20T04:23:14.237Z,24.40
2018-06-20T04:25:42.774Z,25.73
2018-06-20T04:28:11.494Z,24.87
2018-06-20T04:30:40.108Z,25.73
2018-06-20T04:33:08.636Z,24.10
2018-06-20T04:35:37.274Z,24.10
2018-06-20T04:38:05.778Z,24.47
2018-06-20T04:40:34.673Z,24.13
2018-06-20T04:43:03.172Z,24.03
2018-06-20T04:45:31.686Z,24.20
2018-06-20T04:48:00.233Z,25.03
2018-06-20T04:50:28.774Z,24.60
2018-06-20T04:52:57.260Z,25.30
2018-06-20T04:55:25.801Z,25.63
2018-06-20T04:57:54.892Z,25.30
2018-06-20T05:00:23.749Z,25.43
2018-06-20T05:02:52.285Z,25.10
2018-06-20T05:05:20.867Z,27.20
2018-06-20T05:07:49.410Z,26.67
2018-06-20T05:10:17.982Z,25.90
2018-06-20T05:12:46.486Z,26.60
2018-06-20T05:15:15.024Z,26.13
2018-06-20T05:17:43.841Z,27.03
2018-06-20T05:20:12.409Z,26.67
2018-06-20T05:22:40.991Z,25.97
2018-06-20T05:25:09.508Z,25.23
2018-06-20T05:27:38.145Z,25.43
2018-06-20T05:30:06.833Z,25.43
2018-06-20T05:32:35.351Z,25.27
2018-06-20T05:35:03.898Z,24.43
2018-06-20T05:37:32.733Z,25.17
2018-06-20T05:40:01.349Z,24.67
2018-06-20T05:42:29.926Z,22.80
2018-06-20T05:44:58.987Z,22.97
2018-06-20T05:47:27.655Z,22.63
2018-06-20T05:49:56.816Z,22.63
2018-06-20T05:52:25.412Z,21.33
2018-06-20T05:54:53.961Z,22.17
2018-06-20T05:57:22.458Z,21.53
2018-06-20T05:59:51.051Z,23.43
2018-06-20T06:02:19.737Z,22.33
2018-06-20T06:04:48.232Z,22.63
2018-06-20T06:07:16.755Z,22.10
2018-06-20T06:09:46.038Z,22.43
2018-06-20T06:12:14.596Z,22.67
2018-06-20T06:14:43.069Z,20.50
2018-06-20T06:17:11.621Z,22.87
2018-06-20T06:19:40.191Z,23.70
2018-06-20T06:22:08.667Z,23.20
2018-06-20T06:24:37.188Z,22.07
2018-06-20T06:27:05.699Z,22.80
2018-06-20T06:29:34.274Z,21.80
2018-06-20T06:32:03.848Z,21.73
2018-06-20T06:34:32.641Z,20.73
